createdAt,value
2022-10-22T00:00:08.800Z,16.18
2022-10-22T00:02:35.756Z,16.13
2022-10-22T00:05:02.461Z,16.32
2022-10-22T00:07:30.386Z,16.29
2022-10-22T00:09:57.068Z,16.23
2022-10-22T00:12:24.438Z,16.17
2022-10-22T00:14:51.105Z,16.17
2022-10-22T00:17:17.742Z,16.14
2022-10-22T00:19:44.675Z,16.17
2022-10-22T00:22:12.066Z,16.12
2022-10-22T00:24:39.932Z,16.12
2022-10-22T00:27:07.871Z,16.07
2022-10-22T00:29:34.913Z,16.09
2022-10-22T00:32:01.866Z,16.04
2022-10-22T00:34:28.722Z,16.01
2022-10-22T00:36:55.665Z,15.93
2022-10-22T00:39:24.936Z,15.90
2022-10-22T00:41:53.465Z,15.79
2022-10-22T00:44:57.845Z,15.79
2022-10-22T00:47:28.097Z,15.68
2022-10-22T00:49:56.185Z,15.64
2022-10-22T00:52:22.968Z,15.62
2022-10-22T00:54:50.874Z,15.67
2022-10-22T00:57:19.607Z,15.65
2022-10-22T00:59:46.955Z,15.64
2022-10-22T01:02:14.125Z,15.71
2022-10-22T01:04:41.518Z,15.63
2022-10-22T01:07:20.126Z,15.64
2022-10-22T01:10:10.901Z,15.59
2022-10-22T01:12:49.119Z,15.53
2022-10-22T01:15:24.684Z,15.51
2022-10-22T01:18:05.258Z,15.49
2022-10-22T01:21:26.081Z,15.49
2022-10-22T01:24:13.724Z,15.50
2022-10-22T01:26:55.251Z,15.47
2022-10-22T01:29:30.603Z,15.44
2022-10-22T01:32:00.985Z,15.44
2022-10-22T01:34:30.226Z,15.34
2022-10-22T01:36:59.117Z,15.34
2022-10-22T01:39:28.189Z,15.25
2022-10-22T01:41:56.178Z,15.30
2022-10-22T01:44:50.096Z,15.32
2022-10-22T01:47:40.190Z,15.35
2022-10-22T01:50:45.247Z,15.30
2022-10-22T01:53:53.465Z,15.15
2022-10-22T01:56:41.514Z,15.14
2022-10-22T01:59:57.903Z,15.14
2022-10-22T02:02:36.001Z,15.21
2022-10-22T02:05:16.518Z,15.14
2022-10-22T02:07:54.282Z,15.08
2022-10-22T02:10:22.637Z,15.21
2022-10-22T02:12:51.958Z,15.17
2022-10-22T02:15:39.871Z,15.09
2022-10-22T02:18:09.453Z,15.20
2022-10-22T02:20:38.503Z,15.34
2022-10-22T02:23:05.605Z,15.12
2022-10-22T02:25:36.239Z,15.19
2022-10-22T02:28:09.334Z,15.17
2022-10-22T02:30:38.512Z,15.22
2022-10-22T02:33:17.949Z,15.10
2022-10-22T02:35:45.254Z,15.29
2022-10-22T02:38:13.329Z,15.22
2022-10-22T02:40:40.018Z,15.26
2022-10-22T02:43:07.023Z,15.10
2022-10-22T02:45:34.724Z,15.27
2022-10-22T02:48:01.860Z,15.20
2022-10-22T02:50:28.552Z,15.19
2022-10-22T02:52:55.119Z,15.10
2022-10-22T02:55:21.740Z,15.26
2022-10-22T02:57:48.297Z,15.12
2022-10-22T03:00:15.350Z,15.08
2022-10-22T03:02:41.968Z,15.22
2022-10-22T03:05:09.003Z,15.17
2022-10-22T03:07:35.770Z,15.27
2022-10-22T03:10:02.523Z,15.36
2022-10-22T03:12:30.564Z,15.40
2022-10-22T03:14:57.154Z,15.23
2022-10-22T03:17:23.840Z,15.11
2022-10-22T03:19:50.442Z,15.20
2022-10-22T03:22:24.997Z,15.15
2022-10-22T03:24:55.565Z,15.14
2022-10-22T03:27:22.933Z,15.22
2022-10-22T03:29:52.308Z,15.54
2022-10-22T03:32:19.527Z,15.51
2022-10-22T03:34:46.117Z,15.26
2022-10-22T03:37:12.957Z,15.54
2022-10-22T03:39:40.092Z,15.66
2022-10-22T03:42:08.103Z,15.54
2022-10-22T03:44:37.951Z,15.24
2022-10-22T03:47:04.657Z,15.26
2022-10-22T03:49:31.315Z,15.18
2022-10-22T03:51:58.259Z,15.08
2022-10-22T03:54:24.900Z,15.19
2022-10-22T03:56:51.531Z,15.10
2022-10-22T03:59:18.228Z,15.29
2022-10-22T04:01:44.814Z,15.32
2022-10-22T04:04:11.552Z,15.07
2022-10-22T04:06:38.198Z,15.01
2022-10-22T04:09:04.827Z,15.11
2022-10-22T04:11:31.562Z,15.09
2022-10-22T04:13:58.137Z,15.13
2022-10-22T04:16:27.388Z,15.21
2022-10-22T04:18:56.912Z,15.26
2022-10-22T04:21:23.829Z,15.17
2022-10-22T04:23:52.529Z,15.12
2022-10-22T04:26:19.905Z,14.99
2022-10-22T04:28:48.034Z,15.00
2022-10-22T04:31:18.387Z,14.99
2022-10-22T04:33:45.813Z,14.99
2022-10-22T04:36:18.188Z,14.95
2022-10-22T04:38:46.278Z,14.97
2022-10-22T04:41:19.377Z,14.80
2022-10-22T04:43:46.493Z,14.93
2022-10-22T04:46:15.333Z,14.83
2022-10-22T04:48:43.749Z,14.89
2022-10-22T04:51:18.671Z,14.72
2022-10-22T04:53:45.592Z,14.66
2022-10-22T04:56:20.483Z,14.80
2022-10-22T04:58:52.906Z,14.82
2022-10-22T05:01:22.635Z,14.91
2022-10-22T05:03:50.946Z,14.88
2022-10-22T05:06:18.510Z,14.83
2022-10-22T05:08:45.237Z,14.68
2022-10-22T05:11:18.103Z,14.67
2022-10-22T05:13:45.365Z,14.65
2022-10-22T05:16:12.346Z,14.80
2022-10-22T05:18:41.197Z,14.63
2022-10-22T05:21:10.460Z,14.66
2022-10-22T05:23:37.347Z,14.69
2022-10-22T05:26:06.299Z,14.59
2022-10-22T05:28:33.621Z,14.68
2022-10-22T05:31:01.635Z,14.76
2022-10-22T05:33:29.854Z,14.65
2022-10-22T05:35:57.346Z,14.82
2022-10-22T05:38:24.382Z,14.90
2022-10-22T05:41:05.980Z,14.84
2022-10-22T05:43:33.002Z,14.80
2022-10-22T05:46:11.814Z,14.74
2022-10-22T05:48:38.988Z,14.82
2022-10-22T05:51:08.771Z,14.74
2022-10-22T05:53:37.955Z,14.71
2022-10-22T05:56:07.558Z,14.68
2022-10-22T05:58:34.906Z,14.53
2022-10-22T06:01:07.064Z,14.58
2022-10-22T06:03:33.945Z,14.49
2022-10-22T06:06:02.074Z,14.57
2022-10-22T06:08:29.793Z,14.51
2022-10-22T06:10:57.369Z,14.59
2022-10-22T06:13:23.962Z,14.53
2022-10-22T06:15:52.627Z,14.75
2022-10-22T06:18:19.891Z,14.58
2022-10-22T06:20:47.582Z,14.65
2022-10-22T06:23:15.233Z,14.51
2022-10-22T06:25:42.596Z,14.67
2022-10-22T06:28:09.691Z,14.53
2022-10-22T06:30:41.786Z,14.41
2022-10-22T06:33:10.914Z,14.37
2022-10-22T06:35:37.589Z,14.43
2022-10-22T06:38:04.200Z,14.57
2022-10-22T06:40:30.853Z,14.70
2022-10-22T06:43:01.974Z,14.60
2022-10-22T06:45:28.702Z,14.56
2022-10-22T06:47:55.787Z,14.69
2022-10-22T06:50:22.662Z,14.80
2022-10-22T06:52:49.304Z,15.06
2022-10-22T06:55:16.072Z,15.35
2022-10-22T06:57:43.261Z,15.26
2022-10-22T07:00:10.982Z,15.22
2022-10-22T07:02:37.867Z,15.25
2022-10-22T07:05:05.008Z,15.25
2022-10-22T07:07:31.644Z,15.21
2022-10-22T07:09:58.226Z,15.30
2022-10-22T07:12:25.458Z,15.29
2022-10-22T07:14:52.046Z,15.48
2022-10-22T07:17:18.666Z,15.89
2022-10-22T07:19:48.434Z,15.76
2022-10-22T07:22:17.873Z,16.08
2022-10-22T07:24:44.506Z,16.19
2022-10-22T07:27:11.850Z,16.21
2022-10-22T07:29:38.507Z,16.24
2022-10-22T07:32:05.279Z,16.16
2022-10-22T07:34:31.978Z,16.38
2022-10-22T07:36:59.240Z,16.73
2022-10-22T07:39:25.897Z,16.58
2022-10-22T07:41:52.936Z,16.79
2022-10-22T07:44:19.861Z,16.86
2022-10-22T07:46:48.918Z,16.91
2022-10-22T07:49:16.051Z,17.09
2022-10-22T07:51:42.716Z,16.82
2022-10-22T07:54:09.367Z,17.02
2022-10-22T07:56:35.967Z,17.10
2022-10-22T08:01:29.213Z,17.20
2022-10-22T08:03:55.857Z,17.36
2022-10-22T08:06:22.568Z,17.20
2022-10-22T08:08:49.394Z,17.01
2022-10-22T08:11:16.153Z,17.31
2022-10-22T08:13:45.333Z,17.51
2022-10-22T08:16:13.379Z,17.56
2022-10-22T08:18:40.071Z,17.55
2022-10-22T08:21:07.046Z,17.52
2022-10-22T08:23:34.378Z,17.77
2022-10-22T08:26:02.897Z,17.61
2022-10-22T08:28:31.156Z,17.67
2022-10-22T08:30:57.813Z,17.88
2022-10-22T08:33:24.486Z,17.78
2022-10-22T08:35:52.305Z,17.63
2022-10-22T08:38:19.671Z,17.62
2022-10-22T08:40:56.773Z,17.67
2022-10-22T08:43:46.189Z,17.63
2022-10-22T08:46:12.892Z,17.97
2022-10-22T08:48:42.877Z,18.10
2022-10-22T08:51:16.864Z,18.16
2022-10-22T08:54:14.912Z,18.14
2022-10-22T08:56:45.796Z,18.21
2022-10-22T08:59:42.681Z,18.20
2022-10-22T09:02:19.979Z,18.28
2022-10-22T09:05:02.210Z,18.48
2022-10-22T09:07:29.966Z,18.48
2022-10-22T09:10:00.253Z,18.26
2022-10-22T09:12:27.909Z,18.30
2022-10-22T09:14:55.145Z,18.51
2022-10-22T09:17:27.764Z,18.48
2022-10-22T09:20:02.666Z,18.65
2022-10-22T09:25:23.427Z,18.58
2022-10-22T09:27:52.579Z,18.73
2022-10-22T09:30:22.601Z,18.76
2022-10-22T09:33:07.717Z,18.59
2022-10-22T09:35:44.087Z,18.59
2022-10-22T09:38:14.223Z,18.64
2022-10-22T09:40:51.110Z,18.70
2022-10-22T09:43:18.363Z,18.87
2022-10-22T09:45:46.650Z,18.92
2022-10-22T09:48:21.812Z,19.11
2022-10-22T09:50:54.845Z,19.20
2022-10-22T09:53:36.173Z,19.29
2022-10-22T09:56:10.610Z,19.47
2022-10-22T09:58:45.348Z,19.35
2022-10-22T10:01:22.239Z,19.41
2022-10-22T10:03:50.244Z,19.38
2022-10-22T10:06:22.514Z,19.39
2022-10-22T10:08:50.133Z,19.39
2022-10-22T10:11:32.485Z,19.50
2022-10-22T10:14:04.220Z,19.51
2022-10-22T10:16:48.922Z,19.60
2022-10-22T10:19:39.977Z,19.65
2022-10-22T10:22:37.238Z,19.49
2022-10-22T10:25:20.643Z,19.39
2022-10-22T10:28:19.621Z,19.66
2022-10-22T10:30:58.041Z,19.59
2022-10-22T10:33:52.390Z,19.56
2022-10-22T10:37:00.169Z,19.55
2022-10-22T10:39:39.310Z,19.79
2022-10-22T10:42:27.133Z,19.94
2022-10-22T10:45:08.752Z,19.95
2022-10-22T10:48:06.310Z,19.88
2022-10-22T10:50:55.747Z,20.02
2022-10-22T10:53:44.710Z,20.16
2022-10-22T10:56:35.607Z,20.04
2022-10-22T10:59:35.784Z,20.01
2022-10-22T11:02:11.356Z,20.01
2022-10-22T11:04:53.124Z,19.60
2022-10-22T11:07:34.758Z,19.90
2022-10-22T11:10:21.173Z,20.04
2022-10-22T11:12:52.324Z,19.82
2022-10-22T11:15:32.034Z,19.72
2022-10-22T11:18:14.569Z,19.36
2022-10-22T11:20:48.666Z,19.50
2022-10-22T11:23:22.175Z,19.52
2022-10-22T11:25:50.404Z,19.59
2022-10-22T11:28:24.783Z,19.70
2022-10-22T11:31:16.259Z,19.79
2022-10-22T11:33:57.371Z,19.70
2022-10-22T11:36:38.081Z,19.70
2022-10-22T11:39:05.369Z,19.69
2022-10-22T11:41:34.209Z,19.80
2022-10-22T11:44:25.658Z,19.77
2022-10-22T11:46:59.235Z,19.85
2022-10-22T11:49:54.912Z,19.86
2022-10-22T11:52:24.759Z,19.71
2022-10-22T11:54:55.658Z,19.69
2022-10-22T11:57:27.588Z,19.66
2022-10-22T11:59:59.018Z,19.64
2022-10-22T12:02:28.824Z,19.63
2022-10-22T12:04:56.584Z,19.43
2022-10-22T12:07:51.312Z,19.51
2022-10-22T12:10:26.625Z,19.63
2022-10-22T12:13:11.580Z,19.59
2022-10-22T12:15:48.637Z,19.73
2022-10-22T12:18:16.559Z,19.54
2022-10-22T12:20:43.402Z,19.44
2022-10-22T12:23:13.186Z,19.43
2022-10-22T12:25:39.866Z,19.39
2022-10-22T12:28:12.736Z,19.45
2022-10-22T12:30:39.542Z,19.35
2022-10-22T12:33:07.965Z,19.32
2022-10-22T12:35:43.385Z,19.45
2022-10-22T12:38:15.847Z,19.38
2022-10-22T12:40:45.986Z,19.25
2022-10-22T12:43:19.212Z,19.45
2022-10-22T12:45:49.379Z,19.28
2022-10-22T12:48:18.235Z,19.40
2022-10-22T12:50:49.364Z,19.15
2022-10-22T12:53:25.060Z,19.09
2022-10-22T12:55:54.122Z,19.27
2022-10-22T12:58:29.564Z,19.20
2022-10-22T13:01:00.762Z,19.28
2022-10-22T13:03:32.772Z,19.02
2022-10-22T13:06:33.566Z,19.14
2022-10-22T13:09:00.860Z,19.44
2022-10-22T13:11:42.726Z,19.47
2022-10-22T13:14:25.956Z,19.58
2022-10-22T13:17:07.631Z,19.40
2022-10-22T13:19:38.945Z,19.55
2022-10-22T13:22:05.767Z,19.58
2022-10-22T13:24:32.589Z,19.59
2022-10-22T13:26:59.187Z,19.61
2022-10-22T13:29:25.983Z,19.56
2022-10-22T13:31:53.989Z,19.52
2022-10-22T13:34:23.991Z,19.72
2022-10-22T13:36:51.119Z,19.74
2022-10-22T13:39:19.933Z,19.76
2022-10-22T13:41:47.006Z,19.60
2022-10-22T13:44:13.790Z,19.69
2022-10-22T13:46:42.867Z,19.65
2022-10-22T13:49:16.643Z,19.77
2022-10-22T13:51:44.257Z,19.88
2022-10-22T13:54:19.575Z,19.95
2022-10-22T13:56:46.574Z,19.91
2022-10-22T13:59:13.391Z,19.83
2022-10-22T14:01:40.449Z,19.75
2022-10-22T14:04:10.667Z,19.67
2022-10-22T14:09:14.895Z,19.75
2022-10-22T14:11:41.661Z,19.83
2022-10-22T14:14:09.171Z,19.68
2022-10-22T14:16:37.527Z,19.84
2022-10-22T14:19:07.214Z,19.99
2022-10-22T14:21:37.563Z,19.80
2022-10-22T14:24:06.174Z,19.90
2022-10-22T14:26:35.331Z,19.94
2022-10-22T14:29:11.323Z,19.77
2022-10-22T14:31:44.294Z,19.87
2022-10-22T14:34:13.717Z,19.94
2022-10-22T14:36:43.386Z,19.71
2022-10-22T14:39:10.338Z,19.70
2022-10-22T14:41:37.437Z,20.02
2022-10-22T14:44:04.489Z,20.56
2022-10-22T14:46:31.807Z,20.82
2022-10-22T14:48:58.778Z,20.82
2022-10-22T14:51:25.519Z,21.09
2022-10-22T14:53:52.543Z,21.20
2022-10-22T14:56:21.322Z,21.30
2022-10-22T14:58:48.532Z,21.32
2022-10-22T15:01:15.456Z,21.26
2022-10-22T15:03:42.194Z,20.91
2022-10-22T15:06:09.261Z,20.47
2022-10-22T15:08:36.075Z,20.26
2022-10-22T15:11:05.766Z,20.28
2022-10-22T15:13:33.125Z,19.90
2022-10-22T15:16:01.018Z,19.83
2022-10-22T15:18:28.778Z,19.70
2022-10-22T15:21:00.696Z,19.78
2022-10-22T15:23:27.459Z,19.64
2022-10-22T15:25:55.130Z,19.51
2022-10-22T15:28:22.351Z,19.32
2022-10-22T15:30:57.444Z,19.28
2022-10-22T15:33:25.339Z,19.23
2022-10-22T15:35:52.746Z,19.48
2022-10-22T15:38:21.433Z,19.52
2022-10-22T15:40:48.517Z,19.41
2022-10-22T15:43:16.263Z,19.41
2022-10-22T15:45:43.419Z,19.29
2022-10-22T15:48:13.530Z,19.24
2022-10-22T15:50:42.632Z,19.15
2022-10-22T15:53:11.232Z,19.07
2022-10-22T15:55:38.184Z,19.19
2022-10-22T15:58:04.784Z,19.04
2022-10-22T16:00:33.024Z,18.93
2022-10-22T16:02:59.607Z,18.87
2022-10-22T16:05:27.328Z,19.05
2022-10-22T16:07:55.660Z,18.91
2022-10-22T16:10:22.813Z,18.95
2022-10-22T16:12:51.577Z,19.03
2022-10-22T16:15:18.438Z,18.98
2022-10-22T16:17:45.084Z,18.89
2022-10-22T16:22:39.696Z,18.64
2022-10-22T16:25:07.063Z,18.68
2022-10-22T16:27:33.681Z,18.67
2022-10-22T16:30:00.267Z,18.65
2022-10-22T16:32:27.096Z,18.60
2022-10-22T16:34:53.683Z,18.54
2022-10-22T16:37:20.352Z,18.50
2022-10-22T16:39:46.951Z,18.50
2022-10-22T16:42:14.229Z,18.49
2022-10-22T16:44:40.833Z,18.50
2022-10-22T16:47:07.491Z,18.50
2022-10-22T16:49:34.271Z,18.55
2022-10-22T16:52:01.021Z,18.64
2022-10-22T16:54:28.093Z,18.54
2022-10-22T16:56:54.678Z,18.56
2022-10-22T16:59:21.309Z,18.48
2022-10-22T17:01:47.904Z,18.51
2022-10-22T17:04:17.173Z,18.52
2022-10-22T17:06:44.058Z,18.38
2022-10-22T17:09:11.856Z,18.45
2022-10-22T17:11:40.263Z,18.39
2022-10-22T17:14:09.753Z,18.41
2022-10-22T17:16:36.384Z,18.28
2022-10-22T17:19:04.182Z,18.32
2022-10-22T17:21:30.917Z,18.39
2022-10-22T17:23:58.149Z,18.46
2022-10-22T17:26:26.622Z,18.65
2022-10-22T17:28:54.257Z,18.62
2022-10-22T17:31:26.681Z,18.53
2022-10-22T17:33:55.932Z,18.30
2022-10-22T17:36:24.198Z,18.19
2022-10-22T17:38:59.281Z,18.11
2022-10-22T17:41:36.900Z,18.05
2022-10-22T17:44:06.148Z,18.03
2022-10-22T17:46:33.096Z,18.07
2022-10-22T17:49:03.772Z,18.03
2022-10-22T17:51:31.692Z,17.98
2022-10-22T17:53:58.366Z,18.03
2022-10-22T17:56:30.227Z,17.98
2022-10-22T17:58:57.291Z,17.84
2022-10-22T18:01:32.451Z,17.79
2022-10-22T18:04:02.094Z,17.72
2022-10-22T18:06:29.188Z,17.81
2022-10-22T18:08:56.077Z,17.99
2022-10-22T18:11:25.521Z,18.07
2022-10-22T18:13:54.826Z,17.88
2022-10-22T18:16:22.163Z,17.79
2022-10-22T18:18:51.267Z,17.70
2022-10-22T18:21:18.087Z,17.61
2022-10-22T18:23:45.611Z,17.48
2022-10-22T18:26:12.853Z,17.45
2022-10-22T18:28:39.729Z,17.47
2022-10-22T18:31:12.995Z,17.43
2022-10-22T18:33:40.706Z,17.40
2022-10-22T18:36:19.036Z,17.43
2022-10-22T18:38:56.010Z,17.38
2022-10-22T18:41:23.206Z,17.32
2022-10-22T18:43:55.013Z,17.32
2022-10-22T18:46:23.879Z,17.31
2022-10-22T18:48:54.761Z,17.20
2022-10-22T18:51:22.521Z,17.13
2022-10-22T18:54:05.418Z,17.22
2022-10-22T18:56:40.656Z,17.20
2022-10-22T18:59:13.210Z,17.24
2022-10-22T19:01:40.212Z,17.20
2022-10-22T19:04:06.890Z,17.27
2022-10-22T19:06:36.731Z,17.21
2022-10-22T19:09:04.586Z,17.21
2022-10-22T19:11:31.841Z,17.30
2022-10-22T19:13:58.683Z,17.23
2022-10-22T19:16:26.705Z,17.12
2022-10-22T19:19:03.207Z,17.18
2022-10-22T19:21:29.918Z,17.28
2022-10-22T19:23:58.607Z,17.40
2022-10-22T19:26:27.586Z,17.28
2022-10-22T19:28:55.222Z,17.16
2022-10-22T19:31:23.885Z,17.09
2022-10-22T19:33:52.217Z,16.92
2022-10-22T19:36:19.732Z,16.91
2022-10-22T19:38:48.916Z,16.91
2022-10-22T19:41:18.590Z,16.91
2022-10-22T19:43:49.083Z,16.82
2022-10-22T19:46:16.059Z,16.87
2022-10-22T19:48:42.812Z,16.89
2022-10-22T19:51:14.953Z,16.99
2022-10-22T19:53:41.744Z,17.06
2022-10-22T19:56:10.837Z,17.18
2022-10-22T19:58:38.261Z,17.29
2022-10-22T20:01:11.290Z,17.26
2022-10-22T20:03:38.902Z,16.92
2022-10-22T20:06:07.683Z,16.96
2022-10-22T20:08:37.831Z,16.81
2022-10-22T20:11:07.103Z,16.77
2022-10-22T20:13:35.512Z,16.69
2022-10-22T20:16:02.510Z,16.61
2022-10-22T20:18:29.395Z,16.53
2022-10-22T20:20:56.235Z,16.54
2022-10-22T20:23:23.313Z,16.58
2022-10-22T20:25:49.909Z,16.58
2022-10-22T20:28:16.923Z,16.71
2022-10-22T20:30:45.538Z,16.59
2022-10-22T20:33:15.557Z,16.57
2022-10-22T20:35:42.386Z,16.52
2022-10-22T20:38:13.776Z,16.45
2022-10-22T20:40:40.526Z,16.42
2022-10-22T20:43:10.501Z,16.45
2022-10-22T20:45:39.002Z,16.43
2022-10-22T20:50:33.349Z,16.53
2022-10-22T20:53:02.293Z,16.47
2022-10-22T20:55:30.686Z,16.41
2022-10-22T20:57:57.702Z,16.42
2022-10-22T21:00:24.499Z,16.44
2022-10-22T21:02:51.129Z,16.47
2022-10-22T21:05:18.082Z,16.42
2022-10-22T21:07:46.183Z,16.44
2022-10-22T21:10:14.978Z,16.44
2022-10-22T21:12:42.450Z,16.41
2022-10-22T21:15:12.644Z,16.33
2022-10-22T21:17:40.710Z,16.45
2022-10-22T21:22:37.606Z,16.48
2022-10-22T21:25:04.519Z,16.60
2022-10-22T21:27:31.117Z,16.49
2022-10-22T21:29:57.936Z,16.46
2022-10-22T21:32:28.320Z,16.38
2022-10-22T21:34:56.815Z,16.43
2022-10-22T21:37:30.258Z,16.40
2022-10-22T21:39:58.356Z,16.27
2022-10-22T21:42:25.674Z,16.28
2022-10-22T21:44:53.774Z,16.24
2022-10-22T21:47:22.225Z,16.27
2022-10-22T21:49:49.229Z,16.23
2022-10-22T21:52:15.807Z,16.15
2022-10-22T21:54:42.410Z,16.02
2022-10-22T21:57:09.058Z,16.02
2022-10-22T21:59:36.398Z,16.04
2022-10-22T22:02:05.641Z,16.04
2022-10-22T22:04:33.082Z,16.08
2022-10-22T22:06:59.705Z,16.02
2022-10-22T22:09:26.371Z,16.06
2022-10-22T22:11:52.941Z,16.03
2022-10-22T22:14:19.620Z,16.18
2022-10-22T22:16:46.242Z,16.11
2022-10-22T22:19:12.845Z,15.99
2022-10-22T22:21:40.769Z,15.96
2022-10-22T22:24:09.091Z,16.16
2022-10-22T22:26:36.529Z,16.23
2022-10-22T22:29:03.801Z,16.08
2022-10-22T22:31:34.928Z,16.10
2022-10-22T22:34:07.758Z,16.09
2022-10-22T22:36:39.449Z,16.03
2022-10-22T22:39:08.290Z,16.12
2022-10-22T22:41:34.944Z,16.06
2022-10-22T22:44:02.023Z,16.04
2022-10-22T22:46:28.693Z,16.12
2022-10-22T22:48:55.714Z,16.03
2022-10-22T22:51:22.370Z,16.11
2022-10-22T22:53:49.003Z,16.08
2022-10-22T22:56:24.311Z,16.16
2022-10-22T22:58:51.360Z,16.04
2022-10-22T23:01:19.448Z,15.99
2022-10-22T23:03:49.296Z,15.91
2022-10-22T23:06:16.139Z,15.83
2022-10-22T23:08:43.244Z,15.81
2022-10-22T23:11:13.915Z,15.82
2022-10-22T23:13:42.630Z,15.79
2022-10-22T23:16:21.013Z,15.67
2022-10-22T23:18:49.326Z,15.66
2022-10-22T23:21:22.439Z,15.71
2022-10-22T23:23:53.027Z,15.56
2022-10-22T23:26:23.128Z,15.57
2022-10-22T23:28:59.817Z,15.72
2022-10-22T23:31:29.733Z,15.70
2022-10-22T23:33:57.615Z,15.70
2022-10-22T23:36:24.758Z,15.54
2022-10-22T23:38:52.791Z,15.44
2022-10-22T23:41:19.785Z,15.48
2022-10-22T23:43:46.444Z,15.46
2022-10-22T23:46:14.240Z,15.40
2022-10-22T23:48:40.962Z,15.40
2022-10-22T23:51:11.159Z,15.39
2022-10-22T23:53:38.260Z,15.32
2022-10-22T23:56:07.450Z,15.41
2022-10-22T23:58:34.685Z,15.51
